sensor_id;sensor_type;location;lat;lon;timestamp;temperature;humidity
66128;DHT22;52925;52.436;-1.952;2022-10-16T21:47:50;15.70;72.30
66128;DHT22;52925;52.436;-1.952;2022-10-16T21:49:12;15.60;72.30
66128;DHT22;52925;52.436;-1.952;2022-10-16T21:50:33;15.60;72.30
66128;DHT22;52925;52.436;-1.952;2022-10-16T21:51:53;15.60;72.30
66128;DHT22;52925;52.436;-1.952;2022-10-16T21:53:13;15.60;72.40
66128;DHT22;52925;52.436;-1.952;2022-10-16T21:54:34;15.60;72.40
66128;DHT22;52925;52.436;-1.952;2022-10-16T21:55:54;15.60;72.50
66128;DHT22;52925;52.436;-1.952;2022-10-16T21:57:15;15.60;72.50
66128;DHT22;52925;52.436;-1.952;2022-10-16T21:58:36;15.70;72.50
66128;DHT22;52925;52.436;-1.952;2022-10-16T21:59:57;15.60;72.50
66128;DHT22;52925;52.436;-1.952;2022-10-16T22:01:19;15.70;72.50
66128;DHT22;52925;52.436;-1.952;2022-10-16T22:02:40;15.70;72.50
66128;DHT22;52925;52.436;-1.952;2022-10-16T22:04:02;15.70;72.50
66128;DHT22;52925;52.436;-1.952;2022-10-16T22:05:22;15.60;72.50
66128;DHT22;52925;52.436;-1.952;2022-10-16T22:06:43;15.70;72.60
66128;DHT22;52925;52.436;-1.952;2022-10-16T22:08:04;15.60;72.50
66128;DHT22;52925;52.436;-1.952;2022-10-16T22:09:25;15.70;72.50
66128;DHT22;52925;52.436;-1.952;2022-10-16T22:10:45;15.60;72.40
66128;DHT22;52925;52.436;-1.952;2022-10-16T22:12:06;15.60;72.60
66128;DHT22;52925;52.436;-1.952;2022-10-16T22:13:26;15.60;72.70
66128;DHT22;52925;52.436;-1.952;2022-10-16T22:14:47;15.60;72.80
66128;DHT22;52925;52.436;-1.952;2022-10-16T22:16:08;15.60;73.10
66128;DHT22;52925;52.436;-1.952;2022-10-16T22:17:28;15.60;73.10
66128;DHT22;52925;52.436;-1.952;2022-10-16T22:18:50;15.60;73.00
66128;DHT22;52925;52.436;-1.952;2022-10-16T22:20:12;15.60;72.90
66128;DHT22;52925;52.436;-1.952;2022-10-16T22:21:34;15.70;72.80
66128;DHT22;52925;52.436;-1.952;2022-10-16T22:22:54;15.60;72.90
66128;DHT22;52925;52.436;-1.952;2022-10-16T22:24:15;15.60;72.90
66128;DHT22;52925;52.436;-1.952;2022-10-16T22:25:35;15.60;73.10
66128;DHT22;52925;52.436;-1.952;2022-10-16T22:26:55;15.60;73.00
66128;DHT22;52925;52.436;-1.952;2022-10-16T22:28:16;15.60;73.00
66128;DHT22;52925;52.436;-1.952;2022-10-16T22:29:36;15.60;72.90
66128;DHT22;52925;52.436;-1.952;2022-10-16T22:31:00;15.60;72.90
66128;DHT22;52925;52.436;-1.952;2022-10-16T22:32:21;15.60;72.90
66128;DHT22;52925;52.436;-1.952;2022-10-16T22:33:42;15.60;73.10
66128;DHT22;52925;52.436;-1.952;2022-10-16T22:35:02;15.60;73.10
66128;DHT22;52925;52.436;-1.952;2022-10-16T22:36:25;15.60;73.70
66128;DHT22;52925;52.436;-1.952;2022-10-16T22:37:45;15.60;73.10
66128;DHT22;52925;52.436;-1.952;2022-10-16T22:39:06;15.60;73.20
66128;DHT22;52925;52.436;-1.952;2022-10-16T22:40:26;15.60;73.20
66128;DHT22;52925;52.436;-1.952;2022-10-16T22:41:46;15.60;73.20
66128;DHT22;52925;52.436;-1.952;2022-10-16T22:43:07;15.60;73.20
66128;DHT22;52925;52.436;-1.952;2022-10-16T22:44:26;15.60;73.20
66128;DHT22;52925;52.436;-1.952;2022-10-16T22:45:48;15.60;73.30
66128;DHT22;52925;52.436;-1.952;2022-10-16T22:47:07;15.60;73.40
66128;DHT22;52925;52.436;-1.952;2022-10-16T22:48:28;15.60;73.40
66128;DHT22;52925;52.436;-1.952;2022-10-16T22:49:48;15.60;73.30
66128;DHT22;52925;52.436;-1.952;2022-10-16T22:51:10;15.60;73.40
66128;DHT22;52925;52.436;-1.952;2022-10-16T22:52:33;15.60;73.40
66128;DHT22;52925;52.436;-1.952;2022-10-16T22:53:56;15.60;73.60
66128;DHT22;52925;52.436;-1.952;2022-10-16T22:55:17;15.60;73.70
66128;DHT22;52925;52.436;-1.952;2022-10-16T22:56:37;15.60;73.80
66128;DHT22;52925;52.436;-1.952;2022-10-16T22:57:58;15.60;73.80
66128;DHT22;52925;52.436;-1.952;2022-10-16T22:59:18;15.60;73.70
66128;DHT22;52925;52.436;-1.952;2022-10-16T23:00:40;15.60;73.60
66128;DHT22;52925;52.436;-1.952;2022-10-16T23:02:00;15.60;73.60
66128;DHT22;52925;52.436;-1.952;2022-10-16T23:03:20;15.60;73.70
66128;DHT22;52925;52.436;-1.952;2022-10-16T23:04:40;15.60;73.80
66128;DHT22;52925;52.436;-1.952;2022-10-16T23:06:02;15.60;74.00
66128;DHT22;52925;52.436;-1.952;2022-10-16T23:07:22;15.60;74.00
66128;DHT22;52925;52.436;-1.952;2022-10-16T23:08:44;15.60;73.90
66128;DHT22;52925;52.436;-1.952;2022-10-16T23:10:08;15.60;73.90
66128;DHT22;52925;52.436;-1.952;2022-10-16T23:11:29;15.60;73.90
66128;DHT22;52925;52.436;-1.952;2022-10-16T23:12:50;15.60;74.20
66128;DHT22;52925;52.436;-1.952;2022-10-16T23:14:10;15.60;74.00
66128;DHT22;52925;52.436;-1.952;2022-10-16T23:15:31;15.60;74.10
66128;DHT22;52925;52.436;-1.952;2022-10-16T23:16:51;15.60;74.20
66128;DHT22;52925;52.436;-1.952;2022-10-16T23:18:11;15.60;74.10
66128;DHT22;52925;52.436;-1.952;2022-10-16T23:19:31;15.60;74.20
66128;DHT22;52925;52.436;-1.952;2022-10-16T23:20:51;15.60;74.10
66128;DHT22;52925;52.436;-1.952;2022-10-16T23:22:11;15.60;74.20
66128;DHT22;52925;52.436;-1.952;2022-10-16T23:23:33;15.60;74.20
66128;DHT22;52925;52.436;-1.952;2022-10-16T23:24:54;15.60;74.40
66128;DHT22;52925;52.436;-1.952;2022-10-16T23:26:17;15.60;74.30
66128;DHT22;52925;52.436;-1.952;2022-10-16T23:27:38;15.50;74.30
66128;DHT22;52925;52.436;-1.952;2022-10-16T23:28:58;15.60;74.50
66128;DHT22;52925;52.436;-1.952;2022-10-16T23:30:19;15.60;74.60
66128;DHT22;52925;52.436;-1.952;2022-10-16T23:31:38;15.60;74.60
66128;DHT22;52925;52.436;-1.952;2022-10-16T23:32:59;15.60;74.80
66128;DHT22;52925;52.436;-1.952;2022-10-16T23:34:19;15.60;75.00
66128;DHT22;52925;52.436;-1.952;2022-10-16T23:35:39;15.60;74.80
66128;DHT22;52925;52.436;-1.952;2022-10-16T23:36:59;15.60;75.00
66128;DHT22;52925;52.436;-1.952;2022-10-16T23:38:21;15.60;75.00
66128;DHT22;52925;52.436;-1.952;2022-10-16T23:39:41;15.60;75.00
66128;DHT22;52925;52.436;-1.952;2022-10-16T23:41:04;15.60;75.10
66128;DHT22;52925;52.436;-1.952;2022-10-16T23:42:24;15.60;75.20
66128;DHT22;52925;52.436;-1.952;2022-10-16T23:43:44;15.60;75.20
66128;DHT22;52925;52.436;-1.952;2022-10-16T23:45:06;15.60;75.20
66128;DHT22;52925;52.436;-1.952;2022-10-16T23:46:26;15.60;75.30
66128;DHT22;52925;52.436;-1.952;2022-10-16T23:47:47;15.60;75.50
66128;DHT22;52925;52.436;-1.952;2022-10-16T23:49:07;15.60;75.50
66128;DHT22;52925;52.436;-1.952;2022-10-16T23:50:28;15.60;75.70
66128;DHT22;52925;52.436;-1.952;2022-10-16T23:51:48;15.60;75.80
66128;DHT22;52925;52.436;-1.952;2022-10-16T23:53:09;15.60;75.60
66128;DHT22;52925;52.436;-1.952;2022-10-16T23:54:30;15.60;75.50
66128;DHT22;52925;52.436;-1.952;2022-10-16T23:55:51;15.60;75.50
66128;DHT22;52925;52.436;-1.952;2022-10-16T23:57:12;15.60;75.60
66128;DHT22;52925;52.436;-1.952;2022-10-16T23:58:33;15.60;75.60
66128;DHT22;52925;52.436;-1.952;2022-10-16T23:59:54;15.60;75.70
